IGO1173 VOMM-VCBI
Flight info
| Callsign | IGO1173 |
|---|---|
| Flight time | N/A |
| Altitude | 38000 |
| Route | PATTY DCT TEGUT R457 TTR/N0455F390 G325 IDIBI IDIBI1A |
| Aircraft | A20N/M-SDE2E3FGHIRWXY/LB1 |
Departure
| Time | 2026-04-22 09:23 |
|---|---|
| Airport | Chennai International Airport (VOMM) |
Arrival
| Time | N/A |
|---|---|
| Airport | Bandaranaike International Colombo Airport (VCBI) |
| Time | Latitude | Longitude | Altitude | Speed | Heading |
|---|---|---|---|---|---|
| 2026-04-22 09:17 | 12.98243 | 80.15982 | 51 ft | 2 kts | 163° |
| 2026-04-22 09:17 | 12.98260 | 80.15978 | 50 ft | 2 kts | 168° |
| 2026-04-22 09:17 | 12.98276 | 80.15976 | 51 ft | 2 kts | 178° |
| 2026-04-22 09:17 | 12.98292 | 80.15978 | 54 ft | 2 kts | 206° |
| 2026-04-22 09:18 | 12.98304 | 80.15988 | 52 ft | 2 kts | 240° |
| 2026-04-22 09:18 | 12.98306 | 80.15993 | 52 ft | 0 kts | 243° |
| 2026-04-22 09:20 | 12.98302 | 80.15983 | 53 ft | 7 kts | 244° |
| 2026-04-22 09:20 | 12.98295 | 80.15897 | 58 ft | 14 kts | 286° |
| 2026-04-22 09:20 | 12.98321 | 80.15796 | 56 ft | 15 kts | 284° |
| 2026-04-22 09:21 | 12.98351 | 80.15691 | 57 ft | 16 kts | 287° |
| 2026-04-22 09:21 | 12.98382 | 80.15577 | 59 ft | 17 kts | 283° |
| 2026-04-22 09:21 | 12.98423 | 80.15464 | 58 ft | 16 kts | 312° |
| 2026-04-22 09:21 | 12.98485 | 80.15482 | 58 ft | 8 kts | 58° |
| 2026-04-22 09:22 | 12.98492 | 80.15499 | 54 ft | 0 kts | 66° |
| 2026-04-22 09:22 | 12.98568 | 80.15701 | 57 ft | 73 kts | 69° |
| 2026-04-22 09:22 | 12.98842 | 80.16443 | 57 ft | 147 kts | 68° |
| 2026-04-22 09:22 | 12.99257 | 80.17524 | 529 ft | 166 kts | 74° |
| 2026-04-22 09:23 | 12.99714 | 80.18661 | 1170 ft | 183 kts | 71° |
| 2026-04-22 09:23 | 13.00201 | 80.19924 | 1838 ft | 192 kts | 74° |
| 2026-04-22 09:23 | 13.00661 | 80.21324 | 2451 ft | 222 kts | 75° |
| 2026-04-22 09:23 | 13.00916 | 80.22985 | 2895 ft | 253 kts | 91° |
| 2026-04-22 09:24 | 13.00675 | 80.24816 | 3694 ft | 264 kts | 104° |
| 2026-04-22 09:24 | 13.00001 | 80.26574 | 4772 ft | 266 kts | 120° |
| 2026-04-22 09:24 | 12.98909 | 80.28099 | 5907 ft | 267 kts | 131° |
| 2026-04-22 09:24 | 12.97419 | 80.29273 | 6888 ft | 274 kts | 149° |
| 2026-04-22 09:25 | 12.95583 | 80.29891 | 7811 ft | 284 kts | 166° |
| 2026-04-22 09:25 | 12.93597 | 80.30127 | 8748 ft | 293 kts | 179° |
| 2026-04-22 09:25 | 12.91592 | 80.29693 | 9694 ft | 304 kts | 200° |
| 2026-04-22 09:25 | 12.89671 | 80.28671 | 10373 ft | 322 kts | 208° |
| 2026-04-22 09:26 | 12.87810 | 80.27242 | 10883 ft | 342 kts | 217° |
| 2026-04-22 09:26 | 12.86096 | 80.25499 | 11620 ft | 352 kts | 234° |
| 2026-04-22 09:26 | 12.84937 | 80.23272 | 12479 ft | 357 kts | 243° |
| 2026-04-22 09:26 | 12.83798 | 80.20989 | 13408 ft | 361 kts | 245° |
| 2026-04-22 09:27 | 12.82682 | 80.18702 | 14262 ft | 364 kts | 243° |
| 2026-04-22 09:27 | 12.81681 | 80.16308 | 15208 ft | 366 kts | 249° |
| 2026-04-22 09:27 | 12.80688 | 80.13897 | 16135 ft | 367 kts | 248° |
| 2026-04-22 09:27 | 12.79801 | 80.11450 | 17171 ft | 365 kts | 252° |
| 2026-04-22 09:28 | 12.78880 | 80.09043 | 18185 ft | 363 kts | 248° |
| 2026-04-22 09:28 | 12.78021 | 80.06613 | 18962 ft | 364 kts | 253° |
| 2026-04-22 09:28 | 12.77324 | 80.04094 | 19602 ft | 369 kts | 253° |
| 2026-04-22 09:28 | 12.76466 | 80.01592 | 20216 ft | 374 kts | 251° |
| 2026-04-22 09:29 | 12.75956 | 79.99904 | 20615 ft | 378 kts | 254° |
| 2026-04-22 09:29 | 12.75101 | 79.97342 | 21247 ft | 382 kts | 248° |
| 2026-04-22 09:29 | 12.73972 | 79.93904 | 22133 ft | 387 kts | 252° |
| 2026-04-22 09:29 | 12.73002 | 79.91308 | 22817 ft | 391 kts | 249° |
| 2026-04-22 09:30 | 12.72423 | 79.89523 | 23281 ft | 393 kts | 253° |
| 2026-04-22 09:30 | 12.71743 | 79.86792 | 23858 ft | 396 kts | 255° |
| 2026-04-22 09:30 | 12.70850 | 79.84125 | 24457 ft | 398 kts | 248° |
| 2026-04-22 09:30 | 12.70066 | 79.81437 | 25040 ft | 400 kts | 255° |
| 2026-04-22 09:31 | 12.69110 | 79.78748 | 25620 ft | 400 kts | 244° |
| 2026-04-22 09:31 | 12.67879 | 79.76174 | 26188 ft | 402 kts | 241° |
| 2026-04-22 09:31 | 12.66461 | 79.73706 | 26747 ft | 403 kts | 237° |
| 2026-04-22 09:31 | 12.64890 | 79.71321 | 27288 ft | 405 kts | 233° |
| 2026-04-22 09:32 | 12.63205 | 79.69044 | 27810 ft | 406 kts | 232° |
| 2026-04-22 09:32 | 12.61449 | 79.66764 | 28329 ft | 408 kts | 231° |
| 2026-04-22 09:32 | 12.59673 | 79.64476 | 28829 ft | 410 kts | 231° |
| 2026-04-22 09:32 | 12.57772 | 79.62299 | 29321 ft | 412 kts | 225° |
| 2026-04-22 09:33 | 12.55592 | 79.60376 | 29806 ft | 414 kts | 217° |
| 2026-04-22 09:33 | 12.53138 | 79.58884 | 30201 ft | 418 kts | 206° |
| 2026-04-22 09:33 | 12.50431 | 79.57772 | 30567 ft | 421 kts | 201° |
| 2026-04-22 09:33 | 12.47641 | 79.56806 | 30917 ft | 424 kts | 200° |
| 2026-04-22 09:34 | 12.44808 | 79.55890 | 31273 ft | 427 kts | 199° |
| 2026-04-22 09:34 | 12.41960 | 79.54974 | 31641 ft | 429 kts | 199° |
| 2026-04-22 09:34 | 12.39102 | 79.54034 | 32000 ft | 431 kts | 200° |
| 2026-04-22 09:35 | 12.33426 | 79.52084 | 32689 ft | 435 kts | 200° |
| 2026-04-22 09:35 | 12.30552 | 79.51064 | 33029 ft | 437 kts | 200° |
| 2026-04-22 09:35 | 12.27670 | 79.50028 | 33361 ft | 439 kts | 200° |
| 2026-04-22 09:35 | 12.24781 | 79.48983 | 33674 ft | 441 kts | 200° |
| 2026-04-22 09:36 | 12.21880 | 79.47929 | 33966 ft | 443 kts | 200° |
| 2026-04-22 09:36 | 12.19001 | 79.46884 | 34330 ft | 442 kts | 200° |
| 2026-04-22 09:36 | 12.16065 | 79.45817 | 34746 ft | 440 kts | 200° |
| 2026-04-22 09:36 | 12.13217 | 79.44782 | 35146 ft | 439 kts | 200° |
| 2026-04-22 09:37 | 12.10351 | 79.43739 | 35539 ft | 437 kts | 200° |
| 2026-04-22 09:37 | 12.07479 | 79.42695 | 35948 ft | 435 kts | 200° |
| 2026-04-22 09:37 | 12.04635 | 79.41660 | 36337 ft | 433 kts | 199° |
| 2026-04-22 09:37 | 12.01799 | 79.40628 | 36721 ft | 432 kts | 199° |
| 2026-04-22 09:38 | 11.98974 | 79.39601 | 37101 ft | 430 kts | 199° |
| 2026-04-22 09:38 | 11.96139 | 79.38570 | 37480 ft | 429 kts | 199° |
| 2026-04-22 09:38 | 11.93337 | 79.37553 | 37861 ft | 427 kts | 199° |
| 2026-04-22 09:38 | 11.90547 | 79.36539 | 38390 ft | 422 kts | 199° |
| 2026-04-22 09:39 | 11.87794 | 79.35539 | 38690 ft | 419 kts | 199° |
| 2026-04-22 09:39 | 11.85076 | 79.34552 | 38766 ft | 416 kts | 199° |
| 2026-04-22 09:39 | 11.79625 | 79.32578 | 38772 ft | 416 kts | 199° |
| 2026-04-22 09:40 | 11.74141 | 79.30599 | 38771 ft | 416 kts | 199° |
| 2026-04-22 09:40 | 11.68699 | 79.28640 | 38772 ft | 416 kts | 199° |
| 2026-04-22 09:41 | 11.63231 | 79.26741 | 38771 ft | 416 kts | 195° |
| 2026-04-22 09:41 | 11.57507 | 79.25834 | 38776 ft | 416 kts | 182° |
| 2026-04-22 09:42 | 11.51736 | 79.25961 | 38772 ft | 417 kts | 179° |
| 2026-04-22 09:42 | 11.45916 | 79.26210 | 38773 ft | 417 kts | 179° |
| 2026-04-22 09:43 | 11.40140 | 79.26443 | 38774 ft | 418 kts | 179° |
| 2026-04-22 09:43 | 11.34314 | 79.26669 | 38774 ft | 418 kts | 179° |
| 2026-04-22 09:44 | 11.28495 | 79.26890 | 38774 ft | 418 kts | 179° |
| 2026-04-22 09:44 | 11.22698 | 79.27110 | 38775 ft | 418 kts | 179° |
| 2026-04-22 09:45 | 11.16877 | 79.27330 | 38775 ft | 418 kts | 179° |
| 2026-04-22 09:45 | 11.11055 | 79.27550 | 38776 ft | 418 kts | 179° |
| 2026-04-22 09:46 | 11.05225 | 79.27770 | 38776 ft | 419 kts | 179° |
| 2026-04-22 09:46 | 10.99434 | 79.27988 | 38774 ft | 419 kts | 179° |
| 2026-04-22 09:47 | 10.93584 | 79.28209 | 38773 ft | 419 kts | 179° |
| 2026-04-22 09:47 | 10.87743 | 79.28429 | 38773 ft | 420 kts | 179° |
| 2026-04-22 09:48 | 10.81917 | 79.28649 | 38774 ft | 420 kts | 179° |
| 2026-04-22 09:48 | 10.76062 | 79.28870 | 38775 ft | 420 kts | 179° |
| 2026-04-22 09:49 | 10.70247 | 79.29089 | 38771 ft | 420 kts | 179° |
| 2026-04-22 09:49 | 10.64393 | 79.29309 | 38772 ft | 420 kts | 179° |
| 2026-04-22 09:50 | 10.58543 | 79.29529 | 38774 ft | 420 kts | 179° |
| 2026-04-22 09:50 | 10.52690 | 79.29750 | 38776 ft | 420 kts | 179° |
| 2026-04-22 09:51 | 10.46852 | 79.29969 | 38774 ft | 420 kts | 178° |
| 2026-04-22 09:51 | 10.40996 | 79.30189 | 38779 ft | 420 kts | 178° |
| 2026-04-22 09:52 | 10.35175 | 79.30408 | 38778 ft | 420 kts | 178° |
| 2026-04-22 09:52 | 10.29317 | 79.30628 | 38777 ft | 420 kts | 178° |
| 2026-04-22 09:53 | 10.23478 | 79.30847 | 38782 ft | 420 kts | 178° |
| 2026-04-22 09:53 | 10.17615 | 79.31067 | 38779 ft | 420 kts | 178° |
| 2026-04-22 09:54 | 10.11797 | 79.31286 | 38783 ft | 420 kts | 178° |
| 2026-04-22 09:54 | 10.05945 | 79.31505 | 38783 ft | 420 kts | 178° |
| 2026-04-22 09:55 | 10.00088 | 79.31725 | 38782 ft | 420 kts | 178° |
| 2026-04-22 09:55 | 9.94276 | 79.31943 | 38784 ft | 420 kts | 178° |
| 2026-04-22 09:56 | 9.88411 | 79.32163 | 38779 ft | 420 kts | 178° |
| 2026-04-22 09:56 | 9.82593 | 79.32381 | 38781 ft | 420 kts | 178° |